createdAt,value
2023-05-17T03:19:21.147Z,58.31
2023-05-17T03:22:08.666Z,58.45
2023-05-17T03:24:56.111Z,59.19
2023-05-17T03:27:43.140Z,58.78
2023-05-17T03:30:30.716Z,58.77
2023-05-17T03:33:18.992Z,58.43
2023-05-17T03:36:06.118Z,58.24
2023-05-17T03:38:53.302Z,59.52
2023-05-17T03:41:42.019Z,59.09
2023-05-17T03:44:29.381Z,59.83
2023-05-17T03:47:17.342Z,60.48
2023-05-17T03:50:06.575Z,59.46
2023-05-17T03:52:53.721Z,59.13
2023-05-17T03:55:40.854Z,59.84
2023-05-17T03:58:27.911Z,59.26
2023-05-17T04:01:15.526Z,59.34
2023-05-17T04:04:04.431Z,58.79
2023-05-17T04:06:51.924Z,58.91
2023-05-17T04:09:38.777Z,58.83
2023-05-17T04:12:26.376Z,58.38
2023-05-17T04:15:13.743Z,58.42
2023-05-17T04:18:02.941Z,58.26
2023-05-17T04:20:50.127Z,59.35
2023-05-17T04:23:37.726Z,59.06
2023-05-17T04:26:26.755Z,58.72
2023-05-17T04:29:13.656Z,58.07
2023-05-17T04:32:00.650Z,58.01
2023-05-17T04:34:48.034Z,58.07
2023-05-17T04:37:35.120Z,57.72
2023-05-17T04:40:31.361Z,58.46
2023-05-17T04:43:18.685Z,58.34
2023-05-17T04:46:07.027Z,59.03
2023-05-17T04:48:56.275Z,58.75
2023-05-17T04:51:43.785Z,58.84
2023-05-17T04:54:31.749Z,58.21
2023-05-17T04:57:18.970Z,59.18
2023-05-17T05:00:15.588Z,58.89
2023-05-17T05:03:05.919Z,59.97
2023-05-17T05:05:53.909Z,59.94
2023-05-17T05:08:41.084Z,59.63
2023-05-17T05:11:31.862Z,59.94
2023-05-17T05:14:19.737Z,58.34
2023-05-17T05:17:06.861Z,58.75
2023-05-17T05:19:54.787Z,59.20
2023-05-17T05:22:41.953Z,57.86
2023-05-17T05:25:29.166Z,57.95
2023-05-17T05:28:16.471Z,57.61
2023-05-17T05:31:04.415Z,58.15
2023-05-17T05:33:59.317Z,57.85
2023-05-17T05:36:47.115Z,57.84
2023-05-17T05:39:35.315Z,57.71
2023-05-17T05:42:22.287Z,58.27
2023-05-17T05:45:10.324Z,58.45
2023-05-17T05:47:57.524Z,58.89
2023-05-17T05:50:45.076Z,57.55
2023-05-17T05:53:32.066Z,58.54
2023-05-17T05:56:19.392Z,58.42
2023-05-17T05:59:06.254Z,58.61
2023-05-17T06:01:53.209Z,58.97
2023-05-17T06:04:45.227Z,57.79
2023-05-17T06:07:32.945Z,58.53
2023-05-17T06:10:19.884Z,58.85
2023-05-17T06:13:06.866Z,58.29
2023-05-17T06:15:53.790Z,58.00
2023-05-17T06:18:40.877Z,58.53
2023-05-17T06:21:27.823Z,57.91
2023-05-17T06:24:16.875Z,57.93
2023-05-17T06:27:04.024Z,58.71
2023-05-17T06:29:51.065Z,59.09
2023-05-17T06:32:37.955Z,57.85
2023-05-17T06:35:25.018Z,57.13
2023-05-17T06:38:11.858Z,57.68
2023-05-17T06:40:58.889Z,57.38
2023-05-17T06:43:46.232Z,57.24
2023-05-17T06:46:34.524Z,57.12
2023-05-17T06:49:21.353Z,56.83
2023-05-17T06:52:08.268Z,57.21
2023-05-17T06:54:55.170Z,56.53
2023-05-17T06:57:42.136Z,56.86
2023-05-17T07:00:29.292Z,56.60
2023-05-17T07:03:17.633Z,56.60
2023-05-17T07:06:04.781Z,56.50
2023-05-17T07:08:51.608Z,57.75
2023-05-17T07:11:38.922Z,57.05
2023-05-17T07:14:26.082Z,57.16
2023-05-17T07:17:12.951Z,56.19
2023-05-17T07:20:00.076Z,56.37
2023-05-17T07:22:48.190Z,56.72
2023-05-17T07:25:38.558Z,56.92
2023-05-17T07:28:25.551Z,56.25
2023-05-17T07:31:12.394Z,55.30
2023-05-17T07:33:59.327Z,55.53
2023-05-17T07:36:30.422Z,56.34
2023-05-17T07:38:57.730Z,56.36
2023-05-17T07:41:24.800Z,56.54
2023-05-17T07:43:51.373Z,55.40
2023-05-17T07:46:18.402Z,55.41
2023-05-17T07:48:45.084Z,56.31
2023-05-17T07:51:11.780Z,57.69
2023-05-17T07:53:38.356Z,54.70
2023-05-17T07:56:07.826Z,56.13
2023-05-17T07:58:34.540Z,55.89
2023-05-17T08:01:01.163Z,54.53
2023-05-17T08:03:28.510Z,54.36
2023-05-17T08:05:55.144Z,55.12
2023-05-17T08:08:22.163Z,55.87
2023-05-17T08:10:48.869Z,55.82
2023-05-17T08:13:15.630Z,56.22
2023-05-17T08:15:42.199Z,54.41
2023-05-17T08:18:08.823Z,53.03
2023-05-17T08:20:35.742Z,53.54
2023-05-17T08:23:02.381Z,55.15
2023-05-17T08:25:29.231Z,51.27
2023-05-17T08:27:55.915Z,53.45
2023-05-17T08:32:56.587Z,53.04
2023-05-17T08:35:28.449Z,52.57
2023-05-17T08:37:55.512Z,51.67
2023-05-17T08:40:41.249Z,53.95
2023-05-17T08:43:28.542Z,51.98
2023-05-17T08:46:16.515Z,53.50
2023-05-17T08:49:06.191Z,52.83
2023-05-17T08:51:59.192Z,54.14
2023-05-17T08:54:47.282Z,52.48
2023-05-17T08:57:38.398Z,52.91
2023-05-17T09:00:26.731Z,52.48
2023-05-17T09:03:18.089Z,53.50
2023-05-17T09:06:05.617Z,52.19
2023-05-17T09:08:54.571Z,52.32
2023-05-17T09:11:41.690Z,52.89
2023-05-17T09:14:35.865Z,53.83
2023-05-17T09:17:22.858Z,52.55
2023-05-17T09:20:10.991Z,52.04
2023-05-17T09:22:57.941Z,53.68
2023-05-17T09:25:49.263Z,54.73
2023-05-17T09:28:42.369Z,53.22
2023-05-17T09:31:29.268Z,52.79
2023-05-17T09:34:18.931Z,51.52
2023-05-17T09:37:05.837Z,53.05
2023-05-17T09:39:54.871Z,52.97
2023-05-17T09:42:42.022Z,51.23
2023-05-17T09:45:32.274Z,50.61
2023-05-17T09:48:19.563Z,51.34
2023-05-17T09:51:07.533Z,50.02
2023-05-17T09:53:54.727Z,51.06
2023-05-17T09:56:41.952Z,51.34
2023-05-17T09:59:29.834Z,52.36
2023-05-17T10:02:23.067Z,51.81
2023-05-17T10:05:12.406Z,52.77
2023-05-17T10:07:59.343Z,52.43
2023-05-17T10:10:46.562Z,52.53
2023-05-17T10:14:05.890Z,49.83
2023-05-17T10:16:54.123Z,50.76
2023-05-17T10:19:41.962Z,50.14
2023-05-17T10:22:29.420Z,52.08
2023-05-17T10:25:16.515Z,49.81
2023-05-17T10:28:06.485Z,49.19
2023-05-17T10:30:54.521Z,49.86
2023-05-17T10:33:44.335Z,50.00
2023-05-17T10:36:31.714Z,50.69
2023-05-17T10:39:19.132Z,50.65
2023-05-17T10:42:14.707Z,51.41
2023-05-17T10:45:02.451Z,49.98
2023-05-17T10:47:53.143Z,50.89
2023-05-17T10:50:45.041Z,49.98
2023-05-17T10:54:03.098Z,50.78
2023-05-17T10:56:54.087Z,50.33
2023-05-17T11:00:19.335Z,49.83
2023-05-17T11:03:17.255Z,50.65
2023-05-17T11:06:12.893Z,50.22
2023-05-17T11:09:18.708Z,50.77
